Terminal Aerodrome Forecast
Issued by NWS

Home | Current Version | Previous Version | Text Only | Print | Product List | Glossary On
Versions: 1 2 3 4 5 6 7 8 9 10 11 12 13 14 15 16
000
FTUS43 KMPX 060755 AAA
TAFRWF
TAF AMD
KRWF 060755Z 0608/0706 13012KT 2SM BR OVC003
      TEMPO 0609/0612 3/4SM -DZ BR
     FM061200 13011G18KT 4SM BR VCSH OVC007
     FM061500 14014G21KT 5SM BR SCT020 BKN030
     FM062000 15017G25KT 6SM -SHRA VCTS SCT020 BKN035CB=

USA.gov is the U.S. government's official web portal to all federal, state and local government web resources and services.